Aviation Digital Data Service (ADDS)

Output produced by METARs form (1829 UTC 24 April 2014)
found at http://www.aviationweather.gov/adds/metars/
 
KCMI 241748Z 2418/2518 14018G28KT P6SM OVC050 
     FM250300 17010G18KT 4SM -RA VCTS OVC035CB 
     FM250500 17008KT 4SM -RA VCTS SCT007CB OVC015 
     FM251000 33014G20KT 6SM -RA BR SCT007 OVC015 
     FM251200 30012KT P6SM SKC